首页
METAR-TAF:

METAR-TAF

机场 :

Sullivan County International Airport

Monticello, 紐約州, 美国

纬度: 41-42N, 经度: 074-48W, 海拔: 428米

当前天气观测

该预报发布于8分钟前的13:56 UTC
风速4节,风向西
温度 -11°C
湿度 85%
气压 1029 hPa
能見度: 16.1公里
天空无云

METAR: KMSV 211356Z AUTO 28004KT 10SM CLR M11/M13 A3038 RMK AO2 SNE07 SLP318 P0000 T11061133 FZRANO

时间: 09:04 (14:04 UTC)


TAF: 丢失

超过4000个机场的气象观测和天气预报(METAR&TAF报告)。

可查询的气象台以黄色和红色小点在地图上表示。

将鼠标移到小点上方,可查看气象台名称。

然后点击查看天气观测和预报。

如需切换地图:点击带黑十字的绿色按钮放大地图;点击带横线的绿色按钮缩小地图;或者点击绿色箭头查看邻近地区的地图。


METAR-TAF: